The Sea Ranch, CA (95497)

1:36 AM PST on December 05, 2016 (GMT -0800)
Unit 18, The Sea Ranch, CA | | Change Station

Elev 80 ft 38.71 °N, 123.45 °W | Updated 5 minutes ago

Clear
Clear
47.5 °F
Feels Like 48 °F
N
1.0
Wind Variable Wind from NE
Gusts 2.0 mph

Today
High -- | Low -- °F
--% Chance of Precip.
Yesterday
High -- | Low -- °F
Precip. -- in
Pressure 30.12 in
Visibility 10.0 miles
Clouds Clear
Windchill 48 °F
Dew Point Not available.
Humidity Not available.
Rainfall 0.00 in
Snow Depth Not available.
7:17 AM 4:52 PM
Waxing Crescent, 30% visible
METAR KUKI 050856Z AUTO 22003KT 10SM CLR 07/07 A3013 RMK AO2 SLP200 T00720067 58005 $
Pressure 30.12 in
Visibility 10.0 miles
Clouds Clear
Windchill 48 °F
Dew Point Not available.
Humidity Not available.
Rainfall 0.00 in
Snow Depth Not available.
7:17 AM 4:52 PM
Waxing Crescent, 30% visible
METAR KUKI 050856Z AUTO 22003KT 10SM CLR 07/07 A3013 RMK AO2 SLP200 T00720067 58005 $

10-Day Weather Forecast

Almanac

Astronomy

Dec. 05, 2016 Rise Set
Actual Time
Civil Twilight
Nautical Twilight
Astronomical Twilight
Moon
Length of Visible Light
Length of Day
Tomorrow will be .
, % of the Moon is Illuminated

Today's Extremes

State Highs State Lows

Community

WunderPhotos

Upload Photos

1,955,775 photos uploaded!

WunderBlog® & News

Nearby

Air Quality

  Air Quality AQ Index Pollutant
Not available.

Snow Depth

Station Depth Elevation

Earthquake Activity

City Distance Mag. Time & Date
Minimum magnitude displayed is 2.5.

Coastal Water Temperatures

Place Temperature

Stations

Nearby Weather Stations

Station Location Temp. Windchill Dew Point Humidity Wind Precip. Elev Updated Type
                   

Watches & Warnings

There are currently no watches in effect.